Vonachen Knolls, Illinois
Current Conditions -  °F | °C
As of 1:35 AM on Thursday 23 Oct 2014 (Local Time) from KC75 Reporting Station
Clear Clear  
Wind Chill: 36°   Ceiling: Unl
Heat Index: 36°   Visibility: 10mi
Dew Point: 32°   Wind: 0mph
Humidity: 85%   Direction: NA
Pressure: 30.22"   Gusts: NA
Location:  40.915°N, 89.5303°W
Report Text: KC75 230635Z AUTO 00000KT 10SM CLR 02/00 A3022 RMK AO2 T00211002
Loading
Personal Weather Stations






























Interactive Weather Map
Tropical Storm Tracking
New forecast layout! Learn more

10-Day Weather Forecast

Advertisements
Track Severe Weather on mobile